Milton, LA (70558)

12:23 AM CDT on September 02, 2014 (GMT -0500)
SW Milton | Change Station
CLOSE
Current Station
Personal Weather Station
Location: Maurice, LA
Elevation: 18 ft
Nearby Weather Stations

Elev 18 ft 30.08 °N, 92.08 °W | Updated 3 minutes ago

Clear
Clear
77.6 °F
Feels Like 79 °F
N
0.0
Wind Variable Wind from SSW
Gusts 0.0 mph

Today
High -- | Low -- °F
--% Chance of Precip.
Yesterday
High -- | Low -- °F
Precip. -- in
6:45 AM 7:29 PM
Waxing Crescent, 48% visible
Pressure 29.99 in
Visibility 10.0 miles
Clouds Clear
Heat Index 79 °F
Dew Point 78 °F
Humidity 100%
Rainfall 0.35 in
Snow Depth Not available.
UV 0 out of 12
Pollen 8.80 out of 12
Air Quality Not available.
Flu Activity Not available.
METAR KIYA 020435Z AUTO 16005KT 10SM CLR 26/25 A2999 RMK AO2 T02550252

More Conditions Fewer Conditions

Pressure 29.99 in
Visibility 10.0 miles
Clouds Clear
Heat Index 79 °F
Dew Point 78 °F
Humidity 100%
Rainfall 0.35 in
Snow Depth Not available.
UV 0 out of 12
Pollen 8.80 out of 12
Air Quality Not available.
Flu Activity Not available.
METAR KIYA 020435Z AUTO 16005KT 10SM CLR 26/25 A2999 RMK AO2 T02550252

More Conditions Fewer Conditions

10-Day Weather Forecast

Almanac

Astronomy

Sep. 02, 2014 Rise Set
Actual Time 6:45 AM CDT 7:29 PM CDT
Civil Twilight 6:21 AM CDT 7:53 PM CDT
Nautical Twilight 5:52 AM CDT 8:22 PM CDT
Astronomical Twilight 5:23 AM CDT 8:51 PM CDT
Moon 2:00 PM CDT 12:01 AM CDT
Length of Visible Light 13h 32m
Length of Day
12h 43m
Tomorrow will be 1m 45s shorter.
Waxing Crescent, 48% of the Moon is Illuminated
Today
Waxing Crescent
Sep 2
First Quarter
Sep 8
Full
Sep 15
Last Quarter
Sep 24
New

Today's Extremes

State Highs State Lows

Community

WunderPhotos

Upload Photos

1,749,575 photos uploaded!

WunderBlogs® & News

Nearby

Snow Depth

Station Depth Elevation
No new snow has been reported.

Earthquake Activity

City Distance Mag. Time & Date
No recent earthquake activity has been reported nearby.
Minimum magnitude displayed is 2.5.

Coastal Water Temperatures

Place Temperature
Fresh Water Canal Locks, LA 84.9 °F
Amerada Pass, LA 86.0 °F

Nearby Weather Stations